EZY781 ESGG-EDDH
Flight info
| Callsign | EZY781 |
|---|---|
| Flight time | 0h 47m |
| Altitude | 34000 |
| Route | VADIN DCT ALASA/N0447F330 M852 EKERN/N0404F230 T905 BOGMU BOGMU5A |
| Aircraft | A320/M-SDE3FGHIRWY/LB1 |
Departure
| Time | 2026-05-06 20:09 |
|---|---|
| Airport | Göteborg Landvetter Airport (ESGG) |
Arrival
| Time | 2026-05-06 20:56 |
|---|---|
| Airport | Hamburg Helmut Schmidt Airport (EDDH) |
| Time | Latitude | Longitude | Altitude | Speed | Heading |
|---|---|---|---|---|---|
| 2026-05-06 19:45 | 57.66725 | 12.29282 | 526 ft | 0 kts | 115° |
| 2026-05-06 20:00 | 57.66727 | 12.29274 | 526 ft | 2 kts | 115° |
| 2026-05-06 20:00 | 57.66734 | 12.29245 | 526 ft | 2 kts | 115° |
| 2026-05-06 20:01 | 57.66742 | 12.29216 | 526 ft | 2 kts | 115° |
| 2026-05-06 20:01 | 57.66749 | 12.29187 | 499 ft | 2 kts | 104° |
| 2026-05-06 20:01 | 57.66747 | 12.29156 | 526 ft | 3 kts | 63° |
| 2026-05-06 20:01 | 57.66740 | 12.29127 | 526 ft | 2 kts | 43° |
| 2026-05-06 20:02 | 57.66739 | 12.29125 | 526 ft | 0 kts | 41° |
| 2026-05-06 20:03 | 57.66756 | 12.29131 | 526 ft | 3 kts | 342° |
| 2026-05-06 20:03 | 57.66786 | 12.29063 | 526 ft | 10 kts | 295° |
| 2026-05-06 20:04 | 57.66847 | 12.29010 | 526 ft | 14 kts | 15° |
| 2026-05-06 20:04 | 57.66946 | 12.29096 | 527 ft | 16 kts | 26° |
| 2026-05-06 20:04 | 57.67048 | 12.29190 | 529 ft | 17 kts | 26° |
| 2026-05-06 20:04 | 57.67155 | 12.29288 | 530 ft | 17 kts | 26° |
| 2026-05-06 20:05 | 57.67267 | 12.29387 | 531 ft | 18 kts | 25° |
| 2026-05-06 20:05 | 57.67380 | 12.29491 | 532 ft | 19 kts | 25° |
| 2026-05-06 20:05 | 57.67448 | 12.29550 | 533 ft | 7 kts | 25° |
| 2026-05-06 20:05 | 57.67519 | 12.29589 | 533 ft | 11 kts | 354° |
| 2026-05-06 20:06 | 57.67567 | 12.29487 | 533 ft | 11 kts | 296° |
| 2026-05-06 20:06 | 57.67589 | 12.29341 | 533 ft | 12 kts | 271° |
| 2026-05-06 20:06 | 57.67580 | 12.29182 | 533 ft | 10 kts | 241° |
| 2026-05-06 20:06 | 57.67526 | 12.29109 | 531 ft | 5 kts | 205° |
| 2026-05-06 20:07 | 57.67519 | 12.29103 | 531 ft | 1 kts | 205° |
| 2026-05-06 20:07 | 57.67513 | 12.29097 | 531 ft | 0 kts | 205° |
| 2026-05-06 20:08 | 57.67504 | 12.29090 | 530 ft | 8 kts | 206° |
| 2026-05-06 20:08 | 57.67231 | 12.28836 | 531 ft | 81 kts | 206° |
| 2026-05-06 20:08 | 57.66533 | 12.28203 | 524 ft | 140 kts | 206° |
| 2026-05-06 20:08 | 57.65545 | 12.27304 | 761 ft | 161 kts | 206° |
| 2026-05-06 20:09 | 57.64530 | 12.26420 | 1452 ft | 161 kts | 207° |
| 2026-05-06 20:09 | 57.63504 | 12.25486 | 1956 ft | 171 kts | 208° |
| 2026-05-06 20:09 | 57.62369 | 12.24443 | 2236 ft | 193 kts | 207° |
| 2026-05-06 20:09 | 57.61073 | 12.23353 | 2527 ft | 216 kts | 197° |
| 2026-05-06 20:10 | 57.59520 | 12.22813 | 2858 ft | 240 kts | 187° |
| 2026-05-06 20:10 | 57.57793 | 12.22565 | 3438 ft | 255 kts | 184° |
| 2026-05-06 20:10 | 57.56034 | 12.22407 | 4326 ft | 258 kts | 183° |
| 2026-05-06 20:10 | 57.54240 | 12.22214 | 5270 ft | 259 kts | 185° |
| 2026-05-06 20:11 | 57.52438 | 12.21921 | 6180 ft | 261 kts | 187° |
| 2026-05-06 20:11 | 57.50619 | 12.21574 | 7025 ft | 264 kts | 187° |
| 2026-05-06 20:11 | 57.48779 | 12.21196 | 7833 ft | 268 kts | 187° |
| 2026-05-06 20:11 | 57.46908 | 12.20804 | 8639 ft | 273 kts | 187° |
| 2026-05-06 20:12 | 57.45025 | 12.20247 | 9431 ft | 277 kts | 197° |
| 2026-05-06 20:12 | 57.43254 | 12.18824 | 10173 ft | 280 kts | 213° |
| 2026-05-06 20:12 | 57.41744 | 12.16563 | 10750 ft | 290 kts | 225° |
| 2026-05-06 20:12 | 57.40266 | 12.13801 | 10946 ft | 314 kts | 226° |
| 2026-05-06 20:13 | 57.38688 | 12.10805 | 11166 ft | 334 kts | 226° |
| 2026-05-06 20:13 | 57.37041 | 12.07676 | 11735 ft | 342 kts | 226° |
| 2026-05-06 20:13 | 57.35364 | 12.04512 | 12429 ft | 346 kts | 226° |
| 2026-05-06 20:13 | 57.33665 | 12.01322 | 13093 ft | 351 kts | 226° |
| 2026-05-06 20:14 | 57.31938 | 11.98092 | 13783 ft | 354 kts | 226° |
| 2026-05-06 20:14 | 57.30197 | 11.94845 | 14410 ft | 357 kts | 226° |
| 2026-05-06 20:14 | 57.28442 | 11.91576 | 15056 ft | 359 kts | 227° |
| 2026-05-06 20:14 | 57.26675 | 11.88284 | 15704 ft | 361 kts | 227° |
| 2026-05-06 20:15 | 57.24927 | 11.85031 | 16346 ft | 363 kts | 227° |
| 2026-05-06 20:15 | 57.23140 | 11.81709 | 16986 ft | 365 kts | 227° |
| 2026-05-06 20:15 | 57.21344 | 11.78372 | 17617 ft | 367 kts | 227° |
| 2026-05-06 20:15 | 57.19535 | 11.75022 | 18247 ft | 370 kts | 227° |
| 2026-05-06 20:16 | 57.17715 | 11.71661 | 18812 ft | 372 kts | 227° |
| 2026-05-06 20:16 | 57.15886 | 11.68288 | 19380 ft | 373 kts | 227° |
| 2026-05-06 20:16 | 57.13914 | 11.65155 | 19948 ft | 377 kts | 217° |
| 2026-05-06 20:16 | 57.11640 | 11.62722 | 20518 ft | 381 kts | 207° |
| 2026-05-06 20:17 | 57.09221 | 11.60846 | 21058 ft | 383 kts | 205° |
| 2026-05-06 20:17 | 57.06758 | 11.58967 | 21600 ft | 384 kts | 206° |
| 2026-05-06 20:17 | 57.04282 | 11.57077 | 22133 ft | 386 kts | 206° |
| 2026-05-06 20:17 | 57.01803 | 11.55182 | 22645 ft | 387 kts | 206° |
| 2026-05-06 20:18 | 56.99314 | 11.53274 | 23143 ft | 388 kts | 206° |
| 2026-05-06 20:18 | 56.96817 | 11.51358 | 23618 ft | 390 kts | 206° |
| 2026-05-06 20:18 | 56.94311 | 11.49446 | 24016 ft | 391 kts | 206° |
| 2026-05-06 20:18 | 56.91787 | 11.47530 | 24387 ft | 393 kts | 206° |
| 2026-05-06 20:19 | 56.89294 | 11.45641 | 24759 ft | 394 kts | 206° |
| 2026-05-06 20:19 | 56.86757 | 11.43717 | 25123 ft | 395 kts | 206° |
| 2026-05-06 20:19 | 56.84215 | 11.41787 | 25463 ft | 397 kts | 206° |
| 2026-05-06 20:19 | 56.81658 | 11.39849 | 25803 ft | 399 kts | 206° |
| 2026-05-06 20:20 | 56.79092 | 11.37905 | 26151 ft | 400 kts | 206° |
| 2026-05-06 20:20 | 56.76514 | 11.35959 | 26494 ft | 401 kts | 206° |
| 2026-05-06 20:20 | 56.73929 | 11.34010 | 26825 ft | 403 kts | 206° |
| 2026-05-06 20:20 | 56.71336 | 11.32055 | 27158 ft | 404 kts | 206° |
| 2026-05-06 20:21 | 56.68733 | 11.30094 | 27474 ft | 406 kts | 206° |
| 2026-05-06 20:21 | 56.66154 | 11.28154 | 27770 ft | 407 kts | 206° |
| 2026-05-06 20:21 | 56.63539 | 11.26194 | 28072 ft | 408 kts | 206° |
| 2026-05-06 20:21 | 56.60906 | 11.24228 | 28364 ft | 410 kts | 206° |
| 2026-05-06 20:22 | 56.58262 | 11.22261 | 28616 ft | 411 kts | 205° |
| 2026-05-06 20:22 | 56.55608 | 11.20286 | 28885 ft | 413 kts | 205° |
| 2026-05-06 20:22 | 56.52948 | 11.18303 | 29145 ft | 414 kts | 205° |
| 2026-05-06 20:22 | 56.50279 | 11.16312 | 29390 ft | 415 kts | 205° |
| 2026-05-06 20:23 | 56.47604 | 11.14319 | 29659 ft | 416 kts | 205° |
| 2026-05-06 20:23 | 56.44932 | 11.12337 | 29947 ft | 415 kts | 205° |
| 2026-05-06 20:23 | 56.39633 | 11.08419 | 29995 ft | 414 kts | 205° |
| 2026-05-06 20:24 | 56.34308 | 11.04487 | 29970 ft | 414 kts | 205° |
| 2026-05-06 20:24 | 56.28956 | 11.00549 | 29998 ft | 417 kts | 205° |
| 2026-05-06 20:25 | 56.23586 | 10.96621 | 29989 ft | 417 kts | 205° |
| 2026-05-06 20:25 | 56.18256 | 10.92718 | 29989 ft | 417 kts | 205° |
| 2026-05-06 20:26 | 56.12887 | 10.88806 | 29992 ft | 417 kts | 205° |
| 2026-05-06 20:26 | 56.07507 | 10.84908 | 29998 ft | 419 kts | 205° |
| 2026-05-06 20:27 | 56.02097 | 10.80979 | 29993 ft | 420 kts | 204° |
| 2026-05-06 20:27 | 55.96711 | 10.77090 | 29995 ft | 420 kts | 204° |
| 2026-05-06 20:28 | 55.91294 | 10.73183 | 29986 ft | 420 kts | 204° |
| 2026-05-06 20:28 | 55.85875 | 10.69292 | 29993 ft | 420 kts | 204° |
| 2026-05-06 20:29 | 55.80447 | 10.65408 | 29989 ft | 422 kts | 204° |
| 2026-05-06 20:29 | 55.75031 | 10.61558 | 29991 ft | 422 kts | 204° |
| 2026-05-06 20:30 | 55.66856 | 10.55750 | 29992 ft | 422 kts | 204° |
| 2026-05-06 20:31 | 55.61405 | 10.51899 | 29987 ft | 422 kts | 204° |
| 2026-05-06 20:31 | 55.55953 | 10.48043 | 29987 ft | 422 kts | 204° |
| 2026-05-06 20:32 | 55.50543 | 10.44219 | 30004 ft | 422 kts | 204° |
| 2026-05-06 20:32 | 55.45086 | 10.40392 | 30002 ft | 422 kts | 204° |
| 2026-05-06 20:33 | 55.39631 | 10.36579 | 30001 ft | 422 kts | 204° |
| 2026-05-06 20:33 | 55.34171 | 10.32779 | 29976 ft | 422 kts | 204° |
| 2026-05-06 20:34 | 55.28728 | 10.28992 | 29983 ft | 424 kts | 204° |
| 2026-05-06 20:34 | 55.23240 | 10.25179 | 29977 ft | 425 kts | 204° |
| 2026-05-06 20:35 | 55.17744 | 10.21375 | 29980 ft | 425 kts | 203° |
| 2026-05-06 20:35 | 55.12251 | 10.17584 | 29976 ft | 424 kts | 203° |
| 2026-05-06 20:36 | 55.06746 | 10.13806 | 29976 ft | 426 kts | 203° |
| 2026-05-06 20:36 | 55.01262 | 10.10049 | 29976 ft | 427 kts | 203° |
| 2026-05-06 20:37 | 54.95735 | 10.06267 | 29974 ft | 427 kts | 203° |
| 2026-05-06 20:37 | 54.90200 | 10.02497 | 29975 ft | 427 kts | 203° |
| 2026-05-06 20:38 | 54.84667 | 9.98738 | 29958 ft | 428 kts | 202° |
| 2026-05-06 20:38 | 54.79045 | 9.95525 | 29622 ft | 429 kts | 193° |
| 2026-05-06 20:38 | 54.76095 | 9.94507 | 28246 ft | 436 kts | 193° |
| 2026-05-06 20:39 | 54.73096 | 9.93532 | 27173 ft | 439 kts | 192° |
| 2026-05-06 20:39 | 54.70121 | 9.92600 | 26552 ft | 431 kts | 192° |
| 2026-05-06 20:39 | 54.67192 | 9.91684 | 25897 ft | 425 kts | 192° |
| 2026-05-06 20:39 | 54.64295 | 9.90764 | 25251 ft | 421 kts | 193° |
| 2026-05-06 20:40 | 54.61433 | 9.89853 | 24608 ft | 417 kts | 193° |
| 2026-05-06 20:40 | 54.58595 | 9.88928 | 23968 ft | 413 kts | 193° |
| 2026-05-06 20:40 | 54.55821 | 9.87991 | 23333 ft | 411 kts | 194° |
| 2026-05-06 20:40 | 54.53042 | 9.86934 | 22635 ft | 408 kts | 194° |
| 2026-05-06 20:41 | 54.50288 | 9.85865 | 21952 ft | 405 kts | 194° |
| 2026-05-06 20:41 | 54.47544 | 9.84791 | 21299 ft | 403 kts | 194° |
| 2026-05-06 20:41 | 54.44819 | 9.83720 | 20652 ft | 401 kts | 194° |
| 2026-05-06 20:41 | 54.42114 | 9.82652 | 20124 ft | 396 kts | 194° |
| 2026-05-06 20:42 | 54.39446 | 9.81598 | 19688 ft | 390 kts | 194° |
| 2026-05-06 20:42 | 54.36821 | 9.80557 | 19316 ft | 383 kts | 194° |
| 2026-05-06 20:42 | 54.34279 | 9.79543 | 18949 ft | 377 kts | 194° |
| 2026-05-06 20:42 | 54.31743 | 9.78539 | 18590 ft | 371 kts | 194° |
| 2026-05-06 20:43 | 54.29243 | 9.77555 | 18231 ft | 366 kts | 194° |
| 2026-05-06 20:43 | 54.26781 | 9.76592 | 17824 ft | 361 kts | 194° |
| 2026-05-06 20:43 | 54.24349 | 9.75640 | 17417 ft | 357 kts | 194° |
| 2026-05-06 20:43 | 54.21940 | 9.74693 | 17016 ft | 354 kts | 194° |
| 2026-05-06 20:44 | 54.19546 | 9.73754 | 16621 ft | 352 kts | 194° |
| 2026-05-06 20:44 | 54.17160 | 9.72826 | 16227 ft | 351 kts | 194° |
| 2026-05-06 20:44 | 54.14789 | 9.71926 | 15840 ft | 349 kts | 193° |
| 2026-05-06 20:44 | 54.12457 | 9.71030 | 15463 ft | 348 kts | 194° |
| 2026-05-06 20:45 | 54.10102 | 9.70123 | 15057 ft | 346 kts | 194° |
| 2026-05-06 20:45 | 54.07764 | 9.69188 | 14653 ft | 344 kts | 194° |
| 2026-05-06 20:45 | 54.05440 | 9.68252 | 14208 ft | 342 kts | 194° |
| 2026-05-06 20:45 | 54.03129 | 9.67312 | 13775 ft | 341 kts | 194° |
| 2026-05-06 20:46 | 54.00827 | 9.66376 | 13301 ft | 339 kts | 194° |
| 2026-05-06 20:46 | 53.98547 | 9.65430 | 12873 ft | 336 kts | 194° |
| 2026-05-06 20:46 | 53.96281 | 9.64481 | 12450 ft | 334 kts | 194° |
| 2026-05-06 20:46 | 53.94032 | 9.63529 | 12025 ft | 332 kts | 194° |
| 2026-05-06 20:47 | 53.91796 | 9.62580 | 11616 ft | 331 kts | 194° |
| 2026-05-06 20:47 | 53.89600 | 9.61644 | 11216 ft | 330 kts | 194° |
| 2026-05-06 20:47 | 53.87380 | 9.60692 | 10817 ft | 328 kts | 194° |
| 2026-05-06 20:47 | 53.85158 | 9.59867 | 10410 ft | 327 kts | 184° |
| 2026-05-06 20:48 | 53.82893 | 9.59959 | 10023 ft | 326 kts | 175° |
| 2026-05-06 20:48 | 53.80640 | 9.60274 | 9619 ft | 324 kts | 174° |
| 2026-05-06 20:48 | 53.78401 | 9.60602 | 9179 ft | 322 kts | 174° |
| 2026-05-06 20:48 | 53.76166 | 9.60904 | 8695 ft | 322 kts | 175° |
| 2026-05-06 20:49 | 53.73940 | 9.61203 | 8225 ft | 320 kts | 174° |
| 2026-05-06 20:49 | 53.71756 | 9.61494 | 7769 ft | 318 kts | 174° |
| 2026-05-06 20:49 | 53.69557 | 9.61771 | 7295 ft | 317 kts | 174° |
| 2026-05-06 20:49 | 53.67361 | 9.62045 | 6819 ft | 315 kts | 174° |
| 2026-05-06 20:50 | 53.65182 | 9.62325 | 6365 ft | 313 kts | 174° |
| 2026-05-06 20:50 | 53.63018 | 9.62607 | 5859 ft | 311 kts | 174° |
| 2026-05-06 20:50 | 53.60862 | 9.62870 | 5368 ft | 309 kts | 174° |
| 2026-05-06 20:50 | 53.58723 | 9.63109 | 4890 ft | 307 kts | 174° |
| 2026-05-06 20:51 | 53.56594 | 9.63325 | 4394 ft | 305 kts | 174° |
| 2026-05-06 20:51 | 53.54480 | 9.63531 | 3902 ft | 303 kts | 174° |
| 2026-05-06 20:51 | 53.52380 | 9.63738 | 3414 ft | 301 kts | 173° |
| 2026-05-06 20:51 | 53.50422 | 9.64563 | 3046 ft | 290 kts | 149° |
| 2026-05-06 20:52 | 53.48943 | 9.66698 | 2993 ft | 271 kts | 122° |
| 2026-05-06 20:52 | 53.48299 | 9.69491 | 3003 ft | 250 kts | 92° |
| 2026-05-06 20:52 | 53.48691 | 9.72232 | 3007 ft | 244 kts | 55° |
| 2026-05-06 20:52 | 53.50004 | 9.73982 | 3011 ft | 246 kts | 24° |
| 2026-05-06 20:53 | 53.51565 | 9.75173 | 3000 ft | 246 kts | 37° |
| 2026-05-06 20:53 | 53.52625 | 9.77388 | 2942 ft | 247 kts | 60° |
| 2026-05-06 20:53 | 53.53572 | 9.79771 | 2672 ft | 244 kts | 52° |
| 2026-05-06 20:53 | 53.54655 | 9.81966 | 2357 ft | 243 kts | 50° |
| 2026-05-06 20:54 | 53.55731 | 9.84096 | 2037 ft | 240 kts | 51° |
| 2026-05-06 20:54 | 53.56792 | 9.86223 | 1704 ft | 235 kts | 51° |
| 2026-05-06 20:54 | 53.57810 | 9.88271 | 1385 ft | 220 kts | 51° |
| 2026-05-06 20:54 | 53.58778 | 9.90220 | 1073 ft | 215 kts | 50° |
| 2026-05-06 20:55 | 53.59692 | 9.92065 | 804 ft | 195 kts | 50° |
| 2026-05-06 20:55 | 53.60535 | 9.93762 | 527 ft | 183 kts | 49° |
| 2026-05-06 20:55 | 53.61300 | 9.95297 | 307 ft | 161 kts | 48° |
| 2026-05-06 20:55 | 53.61986 | 9.96684 | 62 ft | 144 kts | 50° |
| 2026-05-06 20:56 | 53.62509 | 9.97743 | 41 ft | 81 kts | 51° |
| 2026-05-06 20:56 | 53.62738 | 9.98214 | 45 ft | 25 kts | 50° |
| 2026-05-06 20:56 | 53.62720 | 9.98389 | 43 ft | 14 kts | 139° |
| 2026-05-06 20:56 | 53.62679 | 9.98449 | 43 ft | 0 kts | 141° |
| 2026-05-06 20:57 | 53.62673 | 9.98467 | 42 ft | 9 kts | 117° |
| 2026-05-06 20:58 | 53.62707 | 9.98586 | 43 ft | 13 kts | 50° |
| 2026-05-06 20:58 | 53.62766 | 9.98706 | 43 ft | 14 kts | 50° |
| 2026-05-06 20:58 | 53.62840 | 9.98854 | 43 ft | 18 kts | 50° |
| 2026-05-06 20:58 | 53.62921 | 9.99017 | 43 ft | 18 kts | 50° |
| 2026-05-06 20:59 | 53.63006 | 9.99184 | 44 ft | 19 kts | 50° |
| 2026-05-06 20:59 | 53.63085 | 9.99367 | 45 ft | 19 kts | 54° |
| 2026-05-06 20:59 | 53.63163 | 9.99553 | 44 ft | 20 kts | 51° |
| 2026-05-06 20:59 | 53.63259 | 9.99730 | 45 ft | 21 kts | 43° |
| 2026-05-06 21:00 | 53.63354 | 9.99913 | 45 ft | 21 kts | 50° |
| 2026-05-06 21:00 | 53.63428 | 10.00083 | 46 ft | 16 kts | 78° |
| 2026-05-06 21:00 | 53.63348 | 10.00163 | 46 ft | 15 kts | 178° |
| 2026-05-06 21:00 | 53.63259 | 10.00197 | 45 ft | 12 kts | 133° |
| 2026-05-06 21:01 | 53.63247 | 10.00317 | 46 ft | 8 kts | 88° |
| 2026-05-06 21:01 | 53.63247 | 10.00358 | 46 ft | 0 kts | 88° |